sensor_id;sensor_type;location;lat;lon;timestamp;temperature;humidity
52965;DHT22;42923;53.220;6.528;2023-02-13T00:02:09;6.70;99.90
52965;DHT22;42923;53.220;6.528;2023-02-13T00:04:34;6.70;99.90
52965;DHT22;42923;53.220;6.528;2023-02-13T00:07:00;6.60;99.90
52965;DHT22;42923;53.220;6.528;2023-02-13T00:09:26;6.60;99.90
52965;DHT22;42923;53.220;6.528;2023-02-13T00:11:52;6.60;99.90
52965;DHT22;42923;53.220;6.528;2023-02-13T00:14:17;6.60;99.90
52965;DHT22;42923;53.220;6.528;2023-02-13T00:16:43;6.60;99.90
52965;DHT22;42923;53.220;6.528;2023-02-13T00:19:09;6.60;99.90
52965;DHT22;42923;53.220;6.528;2023-02-13T00:21:34;7.20;99.90
52965;DHT22;42923;53.220;6.528;2023-02-13T00:24:00;6.60;99.90
52965;DHT22;42923;53.220;6.528;2023-02-13T00:26:26;6.60;99.90
52965;DHT22;42923;53.220;6.528;2023-02-13T00:28:51;6.60;99.90
52965;DHT22;42923;53.220;6.528;2023-02-13T00:31:19;6.60;99.90
52965;DHT22;42923;53.220;6.528;2023-02-13T00:33:46;6.60;99.90
52965;DHT22;42923;53.220;6.528;2023-02-13T00:36:14;6.60;99.90
52965;DHT22;42923;53.220;6.528;2023-02-13T00:38:41;6.60;99.90
52965;DHT22;42923;53.220;6.528;2023-02-13T00:41:07;6.60;99.90
52965;DHT22;42923;53.220;6.528;2023-02-13T00:43:33;6.50;99.90
52965;DHT22;42923;53.220;6.528;2023-02-13T00:45:59;6.70;99.90
52965;DHT22;42923;53.220;6.528;2023-02-13T00:48:27;6.60;99.90
52965;DHT22;42923;53.220;6.528;2023-02-13T00:50:53;6.50;99.90
52965;DHT22;42923;53.220;6.528;2023-02-13T00:53:23;6.50;99.90
52965;DHT22;42923;53.220;6.528;2023-02-13T00:55:50;6.50;99.90
52965;DHT22;42923;53.220;6.528;2023-02-13T00:58:16;6.50;99.90
52965;DHT22;42923;53.220;6.528;2023-02-13T01:00:43;6.50;99.90
52965;DHT22;42923;53.220;6.528;2023-02-13T01:03:09;6.50;99.90
52965;DHT22;42923;53.220;6.528;2023-02-13T01:05:34;6.50;99.90
52965;DHT22;42923;53.220;6.528;2023-02-13T01:08:01;6.50;99.90
52965;DHT22;42923;53.220;6.528;2023-02-13T01:10:27;6.50;99.90
52965;DHT22;42923;53.220;6.528;2023-02-13T01:12:53;6.50;99.90
52965;DHT22;42923;53.220;6.528;2023-02-13T01:15:19;6.50;99.90
52965;DHT22;42923;53.220;6.528;2023-02-13T01:17:45;6.50;99.90
52965;DHT22;42923;53.220;6.528;2023-02-13T01:20:12;6.50;99.90
52965;DHT22;42923;53.220;6.528;2023-02-13T01:22:38;6.50;99.90
52965;DHT22;42923;53.220;6.528;2023-02-13T01:25:05;6.50;99.90
52965;DHT22;42923;53.220;6.528;2023-02-13T01:27:32;6.50;99.90
52965;DHT22;42923;53.220;6.528;2023-02-13T01:29:58;6.60;99.90
52965;DHT22;42923;53.220;6.528;2023-02-13T01:32:24;6.50;99.90
52965;DHT22;42923;53.220;6.528;2023-02-13T01:34:50;6.50;99.90
52965;DHT22;42923;53.220;6.528;2023-02-13T01:37:16;6.50;99.90
52965;DHT22;42923;53.220;6.528;2023-02-13T01:39:41;6.50;99.90
52965;DHT22;42923;53.220;6.528;2023-02-13T01:42:21;6.50;99.90
52965;DHT22;42923;53.220;6.528;2023-02-13T01:44:57;6.50;99.90
52965;DHT22;42923;53.220;6.528;2023-02-13T01:47:39;6.50;99.90
52965;DHT22;42923;53.220;6.528;2023-02-13T01:52:46;6.40;99.90
52965;DHT22;42923;53.220;6.528;2023-02-13T01:55:13;6.40;99.90
52965;DHT22;42923;53.220;6.528;2023-02-13T01:57:42;6.40;99.90
52965;DHT22;42923;53.220;6.528;2023-02-13T02:00:13;6.40;99.90
52965;DHT22;42923;53.220;6.528;2023-02-13T02:02:52;6.40;99.90
52965;DHT22;42923;53.220;6.528;2023-02-13T02:05:26;6.40;99.90
52965;DHT22;42923;53.220;6.528;2023-02-13T02:07:55;6.40;99.90
52965;DHT22;42923;53.220;6.528;2023-02-13T02:10:23;6.40;99.90
52965;DHT22;42923;53.220;6.528;2023-02-13T02:15:27;6.40;99.90
52965;DHT22;42923;53.220;6.528;2023-02-13T02:17:53;6.40;99.90
52965;DHT22;42923;53.220;6.528;2023-02-13T02:31:05;6.50;99.90
52965;DHT22;42923;53.220;6.528;2023-02-13T02:50:10;6.50;99.90
52965;DHT22;42923;53.220;6.528;2023-02-13T02:52:45;6.50;99.90
52965;DHT22;42923;53.220;6.528;2023-02-13T02:55:38;6.60;99.90
52965;DHT22;42923;53.220;6.528;2023-02-13T03:01:14;6.60;99.90
52965;DHT22;42923;53.220;6.528;2023-02-13T03:03:59;6.50;99.90
52965;DHT22;42923;53.220;6.528;2023-02-13T03:06:55;6.50;99.90
52965;DHT22;42923;53.220;6.528;2023-02-13T03:09:40;6.60;99.90
52965;DHT22;42923;53.220;6.528;2023-02-13T03:12:32;6.60;99.90
52965;DHT22;42923;53.220;6.528;2023-02-13T03:15:19;6.60;99.90
52965;DHT22;42923;53.220;6.528;2023-02-13T03:17:46;6.60;99.90
52965;DHT22;42923;53.220;6.528;2023-02-13T03:20:54;6.60;99.90
52965;DHT22;42923;53.220;6.528;2023-02-13T03:26:36;6.60;99.90
52965;DHT22;42923;53.220;6.528;2023-02-13T03:41:26;6.60;99.90
52965;DHT22;42923;53.220;6.528;2023-02-13T03:46:40;6.60;99.90
52965;DHT22;42923;53.220;6.528;2023-02-13T03:49:11;6.60;99.90
52965;DHT22;42923;53.220;6.528;2023-02-13T03:52:04;6.60;99.90
52965;DHT22;42923;53.220;6.528;2023-02-13T03:54:42;6.60;99.90
52965;DHT22;42923;53.220;6.528;2023-02-13T03:57:29;6.60;99.90
52965;DHT22;42923;53.220;6.528;2023-02-13T04:00:16;6.50;99.90
52965;DHT22;42923;53.220;6.528;2023-02-13T04:02:58;6.60;99.90
52965;DHT22;42923;53.220;6.528;2023-02-13T04:05:27;6.50;99.90
52965;DHT22;42923;53.220;6.528;2023-02-13T04:07:54;6.50;99.90
52965;DHT22;42923;53.220;6.528;2023-02-13T04:10:21;6.50;99.90
52965;DHT22;42923;53.220;6.528;2023-02-13T04:15:50;6.50;99.90
52965;DHT22;42923;53.220;6.528;2023-02-13T04:18:27;6.50;99.90
52965;DHT22;42923;53.220;6.528;2023-02-13T04:20:53;6.50;99.90
52965;DHT22;42923;53.220;6.528;2023-02-13T04:23:19;6.40;99.90
52965;DHT22;42923;53.220;6.528;2023-02-13T04:25:47;6.40;99.90
52965;DHT22;42923;53.220;6.528;2023-02-13T04:28:15;6.40;99.90
52965;DHT22;42923;53.220;6.528;2023-02-13T04:30:41;6.40;99.90
52965;DHT22;42923;53.220;6.528;2023-02-13T04:33:06;6.40;99.90
52965;DHT22;42923;53.220;6.528;2023-02-13T04:35:32;6.40;99.90
52965;DHT22;42923;53.220;6.528;2023-02-13T04:37:58;6.40;99.90
52965;DHT22;42923;53.220;6.528;2023-02-13T04:40:23;6.50;99.90
52965;DHT22;42923;53.220;6.528;2023-02-13T04:42:49;6.40;99.90
52965;DHT22;42923;53.220;6.528;2023-02-13T04:45:15;6.30;99.90
52965;DHT22;42923;53.220;6.528;2023-02-13T04:47:41;6.30;99.90
52965;DHT22;42923;53.220;6.528;2023-02-13T04:50:07;6.30;99.90
52965;DHT22;42923;53.220;6.528;2023-02-13T04:52:33;6.30;99.90
52965;DHT22;42923;53.220;6.528;2023-02-13T04:54:59;6.30;99.90
52965;DHT22;42923;53.220;6.528;2023-02-13T04:57:25;6.30;99.90
52965;DHT22;42923;53.220;6.528;2023-02-13T04:59:50;6.30;99.90
52965;DHT22;42923;53.220;6.528;2023-02-13T05:02:16;6.30;99.90
52965;DHT22;42923;53.220;6.528;2023-02-13T05:04:41;6.30;99.90
52965;DHT22;42923;53.220;6.528;2023-02-13T05:07:07;6.30;99.90
52965;DHT22;42923;53.220;6.528;2023-02-13T05:09:33;6.30;99.90
52965;DHT22;42923;53.220;6.528;2023-02-13T05:11:58;6.30;99.90
52965;DHT22;42923;53.220;6.528;2023-02-13T05:14:24;6.30;99.90
52965;DHT22;42923;53.220;6.528;2023-02-13T05:16:50;6.30;99.90
52965;DHT22;42923;53.220;6.528;2023-02-13T05:19:16;6.30;99.90
52965;DHT22;42923;53.220;6.528;2023-02-13T05:21:42;6.30;99.90
52965;DHT22;42923;53.220;6.528;2023-02-13T05:24:26;6.30;99.90
52965;DHT22;42923;53.220;6.528;2023-02-13T05:26:52;6.30;99.90
52965;DHT22;42923;53.220;6.528;2023-02-13T05:29:18;6.30;99.90
52965;DHT22;42923;53.220;6.528;2023-02-13T05:31:48;6.30;99.90
52965;DHT22;42923;53.220;6.528;2023-02-13T05:34:15;6.30;99.90
52965;DHT22;42923;53.220;6.528;2023-02-13T05:36:41;6.30;99.90
52965;DHT22;42923;53.220;6.528;2023-02-13T05:39:07;6.30;99.90
52965;DHT22;42923;53.220;6.528;2023-02-13T05:41:33;6.30;99.90
52965;DHT22;42923;53.220;6.528;2023-02-13T05:43:58;6.30;99.90
52965;DHT22;42923;53.220;6.528;2023-02-13T05:46:24;6.20;99.90
52965;DHT22;42923;53.220;6.528;2023-02-13T05:48:51;6.30;99.90
52965;DHT22;42923;53.220;6.528;2023-02-13T05:51:21;6.20;99.90
52965;DHT22;42923;53.220;6.528;2023-02-13T05:53:46;6.20;99.90
52965;DHT22;42923;53.220;6.528;2023-02-13T05:56:12;6.30;99.90
52965;DHT22;42923;53.220;6.528;2023-02-13T05:58:38;6.20;99.90
52965;DHT22;42923;53.220;6.528;2023-02-13T06:01:04;6.90;99.90
52965;DHT22;42923;53.220;6.528;2023-02-13T06:03:31;6.20;99.90
52965;DHT22;42923;53.220;6.528;2023-02-13T06:05:57;6.20;99.90
52965;DHT22;42923;53.220;6.528;2023-02-13T06:08:23;6.20;99.90
52965;DHT22;42923;53.220;6.528;2023-02-13T06:10:50;6.20;99.90
52965;DHT22;42923;53.220;6.528;2023-02-13T06:13:17;6.30;99.90
52965;DHT22;42923;53.220;6.528;2023-02-13T06:15:43;6.20;99.90
52965;DHT22;42923;53.220;6.528;2023-02-13T06:18:09;6.20;99.90
52965;DHT22;42923;53.220;6.528;2023-02-13T06:20:35;6.30;99.90
52965;DHT22;42923;53.220;6.528;2023-02-13T06:23:01;6.20;99.90
52965;DHT22;42923;53.220;6.528;2023-02-13T06:25:27;6.20;99.90
52965;DHT22;42923;53.220;6.528;2023-02-13T06:27:53;6.30;99.90
52965;DHT22;42923;53.220;6.528;2023-02-13T06:30:19;6.30;99.90
52965;DHT22;42923;53.220;6.528;2023-02-13T06:32:45;6.30;99.90
52965;DHT22;42923;53.220;6.528;2023-02-13T06:35:12;6.30;99.90
52965;DHT22;42923;53.220;6.528;2023-02-13T06:37:38;6.30;99.90
52965;DHT22;42923;53.220;6.528;2023-02-13T06:40:05;6.30;99.90
52965;DHT22;42923;53.220;6.528;2023-02-13T06:42:31;6.30;99.90
52965;DHT22;42923;53.220;6.528;2023-02-13T06:44:57;6.30;99.90
52965;DHT22;42923;53.220;6.528;2023-02-13T06:47:23;6.30;99.90
52965;DHT22;42923;53.220;6.528;2023-02-13T06:49:49;6.30;99.90
52965;DHT22;42923;53.220;6.528;2023-02-13T06:52:14;6.30;99.90
52965;DHT22;42923;53.220;6.528;2023-02-13T06:54:40;6.30;99.90
52965;DHT22;42923;53.220;6.528;2023-02-13T06:57:06;6.30;99.90
52965;DHT22;42923;53.220;6.528;2023-02-13T06:59:31;6.30;99.90
52965;DHT22;42923;53.220;6.528;2023-02-13T07:01:57;6.30;99.90
52965;DHT22;42923;53.220;6.528;2023-02-13T07:04:23;6.30;99.90
52965;DHT22;42923;53.220;6.528;2023-02-13T07:06:48;6.30;99.90
52965;DHT22;42923;53.220;6.528;2023-02-13T07:09:14;6.30;99.90
52965;DHT22;42923;53.220;6.528;2023-02-13T07:11:41;6.30;99.90
52965;DHT22;42923;53.220;6.528;2023-02-13T07:14:08;6.50;99.90
52965;DHT22;42923;53.220;6.528;2023-02-13T07:16:34;6.30;99.90
52965;DHT22;42923;53.220;6.528;2023-02-13T07:18:59;6.30;99.90
52965;DHT22;42923;53.220;6.528;2023-02-13T07:21:26;6.30;99.90
52965;DHT22;42923;53.220;6.528;2023-02-13T07:23:51;6.30;99.90
52965;DHT22;42923;53.220;6.528;2023-02-13T07:26:17;6.40;99.90
52965;DHT22;42923;53.220;6.528;2023-02-13T07:28:43;6.40;99.90
52965;DHT22;42923;53.220;6.528;2023-02-13T07:31:09;6.30;99.90
52965;DHT22;42923;53.220;6.528;2023-02-13T07:33:35;6.40;99.90
52965;DHT22;42923;53.220;6.528;2023-02-13T07:36:01;6.50;99.90
52965;DHT22;42923;53.220;6.528;2023-02-13T07:38:29;6.40;99.90
52965;DHT22;42923;53.220;6.528;2023-02-13T07:40:59;6.40;99.90
52965;DHT22;42923;53.220;6.528;2023-02-13T07:43:25;6.40;99.90
52965;DHT22;42923;53.220;6.528;2023-02-13T07:45:51;6.40;99.90
52965;DHT22;42923;53.220;6.528;2023-02-13T07:48:23;6.50;99.90
52965;DHT22;42923;53.220;6.528;2023-02-13T07:50:51;6.50;99.90
52965;DHT22;42923;53.220;6.528;2023-02-13T07:53:17;6.50;99.90
52965;DHT22;42923;53.220;6.528;2023-02-13T07:55:43;6.50;99.90
52965;DHT22;42923;53.220;6.528;2023-02-13T07:58:09;6.50;99.90
52965;DHT22;42923;53.220;6.528;2023-02-13T08:00:34;6.60;99.90
52965;DHT22;42923;53.220;6.528;2023-02-13T08:03:01;6.60;99.90
52965;DHT22;42923;53.220;6.528;2023-02-13T08:05:27;6.60;99.90
52965;DHT22;42923;53.220;6.528;2023-02-13T08:07:53;6.60;99.90
52965;DHT22;42923;53.220;6.528;2023-02-13T08:10:19;6.60;99.90
52965;DHT22;42923;53.220;6.528;2023-02-13T08:13:05;6.60;99.90
52965;DHT22;42923;53.220;6.528;2023-02-13T08:15:31;6.70;99.90
52965;DHT22;42923;53.220;6.528;2023-02-13T08:17:57;6.70;99.90
52965;DHT22;42923;53.220;6.528;2023-02-13T08:20:23;6.70;99.90
52965;DHT22;42923;53.220;6.528;2023-02-13T08:22:49;6.70;99.90
52965;DHT22;42923;53.220;6.528;2023-02-13T08:25:15;6.80;99.90
52965;DHT22;42923;53.220;6.528;2023-02-13T08:27:41;6.80;99.90
52965;DHT22;42923;53.220;6.528;2023-02-13T08:30:08;6.80;99.90
52965;DHT22;42923;53.220;6.528;2023-02-13T08:32:34;6.80;99.90
52965;DHT22;42923;53.220;6.528;2023-02-13T08:34:59;6.90;99.90
52965;DHT22;42923;53.220;6.528;2023-02-13T08:37:25;6.90;99.90
52965;DHT22;42923;53.220;6.528;2023-02-13T08:39:51;6.90;99.90
52965;DHT22;42923;53.220;6.528;2023-02-13T08:42:16;7.00;99.90
52965;DHT22;42923;53.220;6.528;2023-02-13T08:44:42;7.00;99.90
52965;DHT22;42923;53.220;6.528;2023-02-13T08:47:08;7.00;99.90
52965;DHT22;42923;53.220;6.528;2023-02-13T08:49:34;7.10;99.90
52965;DHT22;42923;53.220;6.528;2023-02-13T08:52:01;7.10;99.90
52965;DHT22;42923;53.220;6.528;2023-02-13T08:54:27;7.10;99.90
52965;DHT22;42923;53.220;6.528;2023-02-13T08:56:54;7.10;99.90
52965;DHT22;42923;53.220;6.528;2023-02-13T08:59:19;7.10;99.90
52965;DHT22;42923;53.220;6.528;2023-02-13T09:01:46;7.20;99.90
52965;DHT22;42923;53.220;6.528;2023-02-13T09:04:11;7.20;99.90
52965;DHT22;42923;53.220;6.528;2023-02-13T09:06:40;7.20;99.90
52965;DHT22;42923;53.220;6.528;2023-02-13T09:09:07;7.30;99.90
52965;DHT22;42923;53.220;6.528;2023-02-13T09:11:32;7.30;99.90
52965;DHT22;42923;53.220;6.528;2023-02-13T09:13:58;7.30;99.90
52965;DHT22;42923;53.220;6.528;2023-02-13T09:16:24;7.30;99.90
52965;DHT22;42923;53.220;6.528;2023-02-13T09:18:50;7.30;99.90
52965;DHT22;42923;53.220;6.528;2023-02-13T09:21:17;7.40;99.90
52965;DHT22;42923;53.220;6.528;2023-02-13T09:23:42;7.40;99.90
52965;DHT22;42923;53.220;6.528;2023-02-13T09:26:13;7.40;99.90
52965;DHT22;42923;53.220;6.528;2023-02-13T09:28:40;7.40;99.90
52965;DHT22;42923;53.220;6.528;2023-02-13T09:31:10;7.40;99.90
52965;DHT22;42923;53.220;6.528;2023-02-13T09:33:37;7.50;99.90
52965;DHT22;42923;53.220;6.528;2023-02-13T09:36:08;7.50;99.90
52965;DHT22;42923;53.220;6.528;2023-02-13T09:38:35;7.60;99.90
52965;DHT22;42923;53.220;6.528;2023-02-13T09:41:14;7.60;99.90
52965;DHT22;42923;53.220;6.528;2023-02-13T09:46:37;7.70;99.90
52965;DHT22;42923;53.220;6.528;2023-02-13T09:49:14;7.70;99.90
52965;DHT22;42923;53.220;6.528;2023-02-13T09:51:43;7.70;99.90
52965;DHT22;42923;53.220;6.528;2023-02-13T09:54:15;7.80;99.90
52965;DHT22;42923;53.220;6.528;2023-02-13T10:08:40;7.80;99.90
52965;DHT22;42923;53.220;6.528;2023-02-13T10:22:11;8.00;99.90
52965;DHT22;42923;53.220;6.528;2023-02-13T10:24:39;8.00;99.90
52965;DHT22;42923;53.220;6.528;2023-02-13T10:35:41;8.10;99.90
52965;DHT22;42923;53.220;6.528;2023-02-13T10:38:15;8.10;99.90
52965;DHT22;42923;53.220;6.528;2023-02-13T10:40:51;8.10;99.90
52965;DHT22;42923;53.220;6.528;2023-02-13T10:43:19;8.40;99.90
52965;DHT22;42923;53.220;6.528;2023-02-13T10:48:25;8.20;99.90
52965;DHT22;42923;53.220;6.528;2023-02-13T10:51:18;8.20;99.90
52965;DHT22;42923;53.220;6.528;2023-02-13T10:54:23;8.50;99.90
52965;DHT22;42923;53.220;6.528;2023-02-13T11:02:24;8.30;99.90
52965;DHT22;42923;53.220;6.528;2023-02-13T11:04:58;8.30;99.90
52965;DHT22;42923;53.220;6.528;2023-02-13T11:07:25;8.30;99.90
52965;DHT22;42923;53.220;6.528;2023-02-13T11:09:54;8.30;99.90
52965;DHT22;42923;53.220;6.528;2023-02-13T11:12:24;8.30;99.90
52965;DHT22;42923;53.220;6.528;2023-02-13T11:15:21;8.30;99.90
52965;DHT22;42923;53.220;6.528;2023-02-13T11:17:48;8.30;99.90
52965;DHT22;42923;53.220;6.528;2023-02-13T11:20:36;8.30;99.90
52965;DHT22;42923;53.220;6.528;2023-02-13T11:28:31;8.40;99.90
52965;DHT22;42923;53.220;6.528;2023-02-13T11:31:22;8.40;99.90
52965;DHT22;42923;53.220;6.528;2023-02-13T11:33:48;8.50;99.90
52965;DHT22;42923;53.220;6.528;2023-02-13T11:36:26;8.50;99.90
52965;DHT22;42923;53.220;6.528;2023-02-13T11:41:28;8.50;99.90
52965;DHT22;42923;53.220;6.528;2023-02-13T11:44:04;8.60;99.90
52965;DHT22;42923;53.220;6.528;2023-02-13T11:46:50;8.60;99.90
52965;DHT22;42923;53.220;6.528;2023-02-13T11:49:18;8.60;99.90
52965;DHT22;42923;53.220;6.528;2023-02-13T11:51:46;8.60;99.90
52965;DHT22;42923;53.220;6.528;2023-02-13T11:54:28;8.60;99.90
52965;DHT22;42923;53.220;6.528;2023-02-13T11:59:43;8.70;99.90
52965;DHT22;42923;53.220;6.528;2023-02-13T12:02:24;8.70;99.90
52965;DHT22;42923;53.220;6.528;2023-02-13T12:05:03;8.80;99.90
52965;DHT22;42923;53.220;6.528;2023-02-13T12:07:37;8.90;99.90
52965;DHT22;42923;53.220;6.528;2023-02-13T12:10:24;8.90;99.90
52965;DHT22;42923;53.220;6.528;2023-02-13T12:16:39;9.00;99.90
52965;DHT22;42923;53.220;6.528;2023-02-13T12:19:11;9.10;99.90
52965;DHT22;42923;53.220;6.528;2023-02-13T12:21:52;9.20;99.90
52965;DHT22;42923;53.220;6.528;2023-02-13T12:35:40;9.50;99.90
52965;DHT22;42923;53.220;6.528;2023-02-13T12:38:17;9.50;99.90
52965;DHT22;42923;53.220;6.528;2023-02-13T12:41:04;9.60;99.90
52965;DHT22;42923;53.220;6.528;2023-02-13T12:46:36;9.70;99.90
52965;DHT22;42923;53.220;6.528;2023-02-13T12:57:44;9.70;99.90
52965;DHT22;42923;53.220;6.528;2023-02-13T13:05:25;9.80;99.90
52965;DHT22;42923;53.220;6.528;2023-02-13T13:08:13;9.80;99.90
52965;DHT22;42923;53.220;6.528;2023-02-13T13:10:53;9.70;99.90
52965;DHT22;42923;53.220;6.528;2023-02-13T13:18:46;9.70;99.90
52965;DHT22;42923;53.220;6.528;2023-02-13T13:24:02;9.80;99.90
52965;DHT22;42923;53.220;6.528;2023-02-13T13:26:46;9.70;99.90
52965;DHT22;42923;53.220;6.528;2023-02-13T13:29:39;9.80;99.90
52965;DHT22;42923;53.220;6.528;2023-02-13T13:32:07;10.00;99.90
52965;DHT22;42923;53.220;6.528;2023-02-13T13:34:38;9.70;99.90
52965;DHT22;42923;53.220;6.528;2023-02-13T13:37:21;9.70;99.90
52965;DHT22;42923;53.220;6.528;2023-02-13T13:40:02;9.70;99.90
52965;DHT22;42923;53.220;6.528;2023-02-13T13:45:21;9.80;99.90
52965;DHT22;42923;53.220;6.528;2023-02-13T13:50:41;9.80;99.90
52965;DHT22;42923;53.220;6.528;2023-02-13T13:53:16;9.80;99.90
52965;DHT22;42923;53.220;6.528;2023-02-13T13:58:39;9.90;99.90
52965;DHT22;42923;53.220;6.528;2023-02-13T14:01:28;10.00;99.90
52965;DHT22;42923;53.220;6.528;2023-02-13T14:03:59;10.00;99.90
52965;DHT22;42923;53.220;6.528;2023-02-13T14:09:02;10.00;99.90
52965;DHT22;42923;53.220;6.528;2023-02-13T14:11:36;10.00;99.90
52965;DHT22;42923;53.220;6.528;2023-02-13T14:16:56;9.90;99.90
52965;DHT22;42923;53.220;6.528;2023-02-13T14:19:29;9.90;99.90
52965;DHT22;42923;53.220;6.528;2023-02-13T14:24:57;9.90;99.90
52965;DHT22;42923;53.220;6.528;2023-02-13T14:27:43;9.90;99.90
52965;DHT22;42923;53.220;6.528;2023-02-13T14:30:32;9.90;99.90
52965;DHT22;42923;53.220;6.528;2023-02-13T14:33:04;9.80;99.90
52965;DHT22;42923;53.220;6.528;2023-02-13T14:35:36;9.90;99.90
52965;DHT22;42923;53.220;6.528;2023-02-13T14:38:06;9.90;99.90
52965;DHT22;42923;53.220;6.528;2023-02-13T14:40:47;9.90;99.90
52965;DHT22;42923;53.220;6.528;2023-02-13T14:43:34;10.00;99.90
52965;DHT22;42923;53.220;6.528;2023-02-13T14:46:08;9.90;99.90
52965;DHT22;42923;53.220;6.528;2023-02-13T14:49:22;9.90;99.90
52965;DHT22;42923;53.220;6.528;2023-02-13T14:51:39;9.90;99.90
52965;DHT22;42923;53.220;6.528;2023-02-13T14:54:25;9.80;99.90
52965;DHT22;42923;53.220;6.528;2023-02-13T14:56:58;9.70;99.90
52965;DHT22;42923;53.220;6.528;2023-02-13T14:59:29;9.80;99.90
52965;DHT22;42923;53.220;6.528;2023-02-13T15:02:08;9.80;99.90
52965;DHT22;42923;53.220;6.528;2023-02-13T15:04:41;9.80;99.90
52965;DHT22;42923;53.220;6.528;2023-02-13T15:07:21;9.80;99.90
52965;DHT22;42923;53.220;6.528;2023-02-13T15:09:51;10.00;99.90
52965;DHT22;42923;53.220;6.528;2023-02-13T15:12:35;9.70;99.90
52965;DHT22;42923;53.220;6.528;2023-02-13T15:15:16;9.70;99.90
52965;DHT22;42923;53.220;6.528;2023-02-13T15:17:46;9.70;99.90
52965;DHT22;42923;53.220;6.528;2023-02-13T15:22:41;9.60;99.90
52965;DHT22;42923;53.220;6.528;2023-02-13T15:25:07;9.60;99.90
52965;DHT22;42923;53.220;6.528;2023-02-13T15:27:42;9.50;99.90
52965;DHT22;42923;53.220;6.528;2023-02-13T15:30:17;9.70;99.90
52965;DHT22;42923;53.220;6.528;2023-02-13T15:32:43;9.50;99.90
52965;DHT22;42923;53.220;6.528;2023-02-13T15:35:29;9.50;99.90
52965;DHT22;42923;53.220;6.528;2023-02-13T15:37:56;9.40;99.90
52965;DHT22;42923;53.220;6.528;2023-02-13T15:40:28;9.50;99.90
52965;DHT22;42923;53.220;6.528;2023-02-13T15:42:55;9.40;99.90
52965;DHT22;42923;53.220;6.528;2023-02-13T15:45:23;9.60;99.90
52965;DHT22;42923;53.220;6.528;2023-02-13T15:47:50;9.40;99.90
52965;DHT22;42923;53.220;6.528;2023-02-13T15:50:30;9.30;99.90
52965;DHT22;42923;53.220;6.528;2023-02-13T15:52:57;9.30;99.90
52965;DHT22;42923;53.220;6.528;2023-02-13T15:55:26;9.30;99.90
52965;DHT22;42923;53.220;6.528;2023-02-13T15:57:54;9.20;99.90
52965;DHT22;42923;53.220;6.528;2023-02-13T16:00:32;9.20;99.90
52965;DHT22;42923;53.220;6.528;2023-02-13T16:03:01;9.20;99.90
52965;DHT22;42923;53.220;6.528;2023-02-13T16:05:29;9.20;99.90
52965;DHT22;42923;53.220;6.528;2023-02-13T16:07:58;9.10;99.90
52965;DHT22;42923;53.220;6.528;2023-02-13T16:10:31;9.10;99.90
52965;DHT22;42923;53.220;6.528;2023-02-13T16:12:59;9.10;99.90
52965;DHT22;42923;53.220;6.528;2023-02-13T16:15:29;9.10;99.90
52965;DHT22;42923;53.220;6.528;2023-02-13T16:17:55;9.00;99.90
52965;DHT22;42923;53.220;6.528;2023-02-13T16:20:24;9.20;99.90
52965;DHT22;42923;53.220;6.528;2023-02-13T16:23:03;9.10;99.90
52965;DHT22;42923;53.220;6.528;2023-02-13T16:25:37;8.90;99.90
52965;DHT22;42923;53.220;6.528;2023-02-13T16:28:16;8.80;99.90
52965;DHT22;42923;53.220;6.528;2023-02-13T16:30:44;8.80;99.90
52965;DHT22;42923;53.220;6.528;2023-02-13T16:35:41;8.70;99.90
52965;DHT22;42923;53.220;6.528;2023-02-13T16:38:31;8.60;99.90
52965;DHT22;42923;53.220;6.528;2023-02-13T16:41:01;8.60;99.90
52965;DHT22;42923;53.220;6.528;2023-02-13T16:51:44;8.30;99.90
52965;DHT22;42923;53.220;6.528;2023-02-13T16:56:37;8.20;99.90
52965;DHT22;42923;53.220;6.528;2023-02-13T16:59:27;8.10;99.90
52965;DHT22;42923;53.220;6.528;2023-02-13T17:04:38;8.00;99.90
52965;DHT22;42923;53.220;6.528;2023-02-13T17:07:06;7.90;99.90
52965;DHT22;42923;53.220;6.528;2023-02-13T17:09:35;7.80;99.90
52965;DHT22;42923;53.220;6.528;2023-02-13T17:12:01;7.70;99.90
52965;DHT22;42923;53.220;6.528;2023-02-13T17:14:27;7.60;99.90
52965;DHT22;42923;53.220;6.528;2023-02-13T17:16:52;7.50;99.90
52965;DHT22;42923;53.220;6.528;2023-02-13T17:19:18;7.40;99.90
52965;DHT22;42923;53.220;6.528;2023-02-13T17:21:44;7.30;99.90
52965;DHT22;42923;53.220;6.528;2023-02-13T17:24:15;7.20;99.90
52965;DHT22;42923;53.220;6.528;2023-02-13T17:26:42;7.10;99.90
52965;DHT22;42923;53.220;6.528;2023-02-13T17:29:08;7.00;99.90
52965;DHT22;42923;53.220;6.528;2023-02-13T17:31:34;6.90;99.90
52965;DHT22;42923;53.220;6.528;2023-02-13T17:34:00;6.80;99.90
52965;DHT22;42923;53.220;6.528;2023-02-13T17:36:26;6.70;99.90
52965;DHT22;42923;53.220;6.528;2023-02-13T17:38:52;6.60;99.90
52965;DHT22;42923;53.220;6.528;2023-02-13T17:41:17;6.50;99.90
52965;DHT22;42923;53.220;6.528;2023-02-13T17:43:43;6.50;99.90
52965;DHT22;42923;53.220;6.528;2023-02-13T17:46:09;6.30;99.90
52965;DHT22;42923;53.220;6.528;2023-02-13T17:48:35;6.20;99.90
52965;DHT22;42923;53.220;6.528;2023-02-13T17:51:00;6.20;99.90
52965;DHT22;42923;53.220;6.528;2023-02-13T17:53:28;6.10;99.90
52965;DHT22;42923;53.220;6.528;2023-02-13T17:55:55;6.00;99.90
52965;DHT22;42923;53.220;6.528;2023-02-13T17:58:21;5.90;99.90
52965;DHT22;42923;53.220;6.528;2023-02-13T18:00:47;5.80;99.90
52965;DHT22;42923;53.220;6.528;2023-02-13T18:03:12;5.80;99.90
52965;DHT22;42923;53.220;6.528;2023-02-13T18:05:38;5.90;99.90
52965;DHT22;42923;53.220;6.528;2023-02-13T18:08:04;5.70;99.90
52965;DHT22;42923;53.220;6.528;2023-02-13T18:10:32;5.60;99.90
52965;DHT22;42923;53.220;6.528;2023-02-13T18:12:58;5.60;99.90
52965;DHT22;42923;53.220;6.528;2023-02-13T18:15:40;5.90;99.90
52965;DHT22;42923;53.220;6.528;2023-02-13T18:18:06;5.50;99.90
52965;DHT22;42923;53.220;6.528;2023-02-13T18:20:31;5.50;99.90
52965;DHT22;42923;53.220;6.528;2023-02-13T18:22:57;5.50;99.90
52965;DHT22;42923;53.220;6.528;2023-02-13T18:25:23;5.40;99.90
52965;DHT22;42923;53.220;6.528;2023-02-13T18:27:49;5.30;99.90
52965;DHT22;42923;53.220;6.528;2023-02-13T18:30:18;5.30;99.90
52965;DHT22;42923;53.220;6.528;2023-02-13T18:32:44;5.20;99.90
52965;DHT22;42923;53.220;6.528;2023-02-13T18:35:11;5.10;99.90
52965;DHT22;42923;53.220;6.528;2023-02-13T18:37:37;5.00;99.90
52965;DHT22;42923;53.220;6.528;2023-02-13T18:40:06;5.00;99.90
52965;DHT22;42923;53.220;6.528;2023-02-13T18:42:32;4.60;99.90
52965;DHT22;42923;53.220;6.528;2023-02-13T18:44:58;4.90;99.90
52965;DHT22;42923;53.220;6.528;2023-02-13T18:47:23;4.80;99.90
52965;DHT22;42923;53.220;6.528;2023-02-13T18:49:49;4.80;99.90
52965;DHT22;42923;53.220;6.528;2023-02-13T18:52:15;4.80;99.90
52965;DHT22;42923;53.220;6.528;2023-02-13T18:54:40;4.70;99.90
52965;DHT22;42923;53.220;6.528;2023-02-13T18:57:06;4.70;99.90
52965;DHT22;42923;53.220;6.528;2023-02-13T18:59:32;4.60;99.90
52965;DHT22;42923;53.220;6.528;2023-02-13T19:01:57;4.60;99.90
52965;DHT22;42923;53.220;6.528;2023-02-13T19:04:23;4.60;99.90
52965;DHT22;42923;53.220;6.528;2023-02-13T19:06:49;4.50;99.90
52965;DHT22;42923;53.220;6.528;2023-02-13T19:09:15;4.50;99.90